Time;durP1;ratioP1;P1;durP2;ratioP2;P2;SDS_P1;SDS_P2;PMS_P1;PMS_P2;Temp;Humidity;BMP_temperature;BMP_pressure;BME280_temperature;BME280_humidity;BME280_pressure;Samples;Min_cycle;Max_cycle;Signal;HPM_P1;HPM_P2
2021/09/18 00:00:40;;;;;;;1.58;0.80;;;11.70;99.90;;;;;;5032818;28;20207;-70
2021/09/18 00:03:05;;;;;;;1.75;0.50;;;11.80;99.90;;;;;;5031848;28;20179;-68
2021/09/18 00:05:32;;;;;;;1.27;0.80;;;11.70;99.90;;;;;;5035079;28;20254;-67
2021/09/18 00:07:58;;;;;;;0.98;0.70;;;11.60;99.90;;;;;;5030430;28;20249;-70
2021/09/18 00:10:24;;;;;;;0.80;0.80;;;11.60;99.90;;;;;;5022532;28;20217;-68
2021/09/18 00:12:49;;;;;;;0.60;0.60;;;11.50;99.90;;;;;;5028592;28;20186;-69
2021/09/18 00:15:15;;;;;;;0.80;0.50;;;11.50;99.90;;;;;;5035952;28;20227;-69
2021/09/18 00:17:40;;;;;;;0.68;0.50;;;11.40;99.90;;;;;;5028824;28;20434;-66
2021/09/18 00:20:07;;;;;;;1.13;0.70;;;11.40;99.90;;;;;;5031387;28;20269;-68
2021/09/18 00:22:33;;;;;;;1.35;0.73;;;11.30;99.90;;;;;;5031746;28;20623;-69
2021/09/18 00:24:58;;;;;;;1.75;0.70;;;11.30;99.90;;;;;;5036044;28;20206;-70
2021/09/18 00:27:24;;;;;;;1.02;0.60;;;11.20;99.90;;;;;;5031370;28;20175;-70
2021/09/18 00:29:50;;;;;;;0.70;0.60;;;11.20;99.90;;;;;;5032444;28;20217;-68
2021/09/18 00:32:15;;;;;;;0.55;0.52;;;11.10;99.90;;;;;;5026314;28;20201;-67
2021/09/18 00:34:41;;;;;;;1.17;0.70;;;11.10;99.90;;;;;;5035888;28;20193;-68
2021/09/18 00:37:06;;;;;;;0.50;0.50;;;11.00;99.90;;;;;;5028378;28;20192;-68
2021/09/18 00:39:32;;;;;;;0.63;0.63;;;11.00;99.90;;;;;;5033483;28;20183;-70
2021/09/18 00:41:58;;;;;;;1.90;0.70;;;10.90;99.90;;;;;;5033211;28;20794;-70
2021/09/18 00:44:27;;;;;;;0.55;0.55;;;10.90;99.90;;;;;;5032820;28;20807;-70
2021/09/18 00:46:53;;;;;;;1.00;0.50;;;10.90;99.90;;;;;;5034978;28;20629;-66
2021/09/18 00:49:19;;;;;;;1.23;0.70;;;10.80;99.90;;;;;;5032138;28;20279;-69
2021/09/18 00:51:46;;;;;;;1.02;0.65;;;10.80;99.90;;;;;;5022731;28;20528;-70
2021/09/18 00:54:13;;;;;;;0.40;0.40;;;10.80;99.90;;;;;;5034971;28;20183;-69
2021/09/18 00:56:40;;;;;;;1.52;0.60;;;10.70;99.90;;;;;;5038284;28;20178;-70
2021/09/18 00:59:05;;;;;;;0.80;0.60;;;10.70;99.90;;;;;;5027624;28;20332;-69
2021/09/18 01:01:31;;;;;;;0.75;0.60;;;10.70;99.90;;;;;;5036727;28;20213;-68
2021/09/18 01:03:59;;;;;;;1.47;0.67;;;10.60;99.90;;;;;;5023956;28;20206;-67
2021/09/18 01:06:25;;;;;;;1.60;0.70;;;10.60;99.90;;;;;;5038555;28;20178;-69
2021/09/18 01:08:55;;;;;;;0.60;0.50;;;10.60;99.90;;;;;;5033891;28;20193;-69
2021/09/18 01:11:21;;;;;;;0.80;0.60;;;10.60;99.90;;;;;;5034226;28;20202;-69
2021/09/18 01:13:46;;;;;;;0.70;0.70;;;10.50;99.90;;;;;;5024599;28;20297;-70
2021/09/18 01:16:12;;;;;;;1.08;0.98;;;10.50;99.90;;;;;;5031664;28;20192;-70
2021/09/18 01:18:37;;;;;;;1.67;0.60;;;10.50;99.90;;;;;;5033358;28;20499;-68
2021/09/18 01:21:03;;;;;;;2.20;0.80;;;10.60;99.90;;;;;;5038046;28;20206;-68
2021/09/18 01:23:29;;;;;;;1.43;1.20;;;10.40;99.90;;;;;;5038137;28;20567;-69
2021/09/18 01:25:55;;;;;;;0.57;0.57;;;10.30;99.90;;;;;;5041160;28;20273;-69
2021/09/18 01:28:22;;;;;;;0.50;0.50;;;10.20;99.90;;;;;;5028083;28;20179;-67
2021/09/18 01:30:49;;;;;;;1.57;0.80;;;10.10;99.90;;;;;;5037042;28;20459;-69
2021/09/18 01:33:14;;;;;;;0.70;0.70;;;10.10;99.90;;;;;;5032966;28;20178;-70
2021/09/18 01:35:40;;;;;;;0.60;0.60;;;10.00;99.90;;;;;;5029153;28;20913;-67
2021/09/18 01:38:06;;;;;;;2.07;0.60;;;10.00;99.90;;;;;;5035926;28;20186;-70
2021/09/18 01:40:38;;;;;;;0.97;0.60;;;10.00;99.90;;;;;;5039179;28;20671;-69
2021/09/18 01:43:04;;;;;;;0.93;0.73;;;10.10;99.90;;;;;;5026879;28;20631;-69
2021/09/18 01:45:33;;;;;;;1.33;0.60;;;10.10;99.90;;;;;;5037680;28;20567;-68
2021/09/18 01:48:01;;;;;;;2.90;0.90;;;10.10;99.90;;;;;;5027595;28;20269;-70
2021/09/18 01:50:36;;;;;;;1.53;0.77;;;10.00;99.90;;;;;;5033161;28;20201;-69
2021/09/18 01:53:05;;;;;;;1.23;0.83;;;10.00;99.90;;;;;;5037950;28;20184;-69
2021/09/18 01:55:31;;;;;;;0.70;0.70;;;9.90;99.90;;;;;;5036499;28;20636;-66
2021/09/18 01:57:58;;;;;;;0.60;0.60;;;9.80;99.90;;;;;;5033887;28;20210;-66
2021/09/18 02:00:25;;;;;;;1.93;0.60;;;9.70;99.90;;;;;;5029772;28;20202;-66
2021/09/18 02:02:51;;;;;;;0.83;0.60;;;9.70;99.90;;;;;;5032120;28;20513;-70
2021/09/18 02:05:21;;;;;;;1.53;1.20;;;9.70;99.90;;;;;;5036949;28;20207;-69
2021/09/18 02:07:47;;;;;;;2.23;0.80;;;9.70;99.90;;;;;;5041915;28;20179;-68
2021/09/18 02:10:17;;;;;;;1.37;0.80;;;9.70;99.90;;;;;;5039871;28;20185;-68
2021/09/18 02:12:43;;;;;;;0.70;0.70;;;9.70;99.90;;;;;;5039480;28;20174;-69
2021/09/18 02:15:10;;;;;;;0.67;0.67;;;9.80;99.90;;;;;;5038429;28;20204;-67
2021/09/18 02:17:36;;;;;;;0.70;0.70;;;9.70;99.90;;;;;;5039547;28;20193;-70
2021/09/18 02:20:03;;;;;;;0.57;0.50;;;9.80;99.90;;;;;;5030237;28;20333;-68
2021/09/18 02:22:29;;;;;;;0.70;0.70;;;9.70;99.90;;;;;;5039723;28;20252;-69
2021/09/18 02:24:55;;;;;;;0.60;0.60;;;9.70;99.90;;;;;;5027633;28;20645;-69
2021/09/18 02:27:20;;;;;;;0.80;0.60;;;9.60;99.90;;;;;;5030973;28;20237;-69
2021/09/18 02:29:46;;;;;;;0.90;0.70;;;9.70;99.90;;;;;;5034720;28;20183;-70
2021/09/18 02:32:11;;;;;;;0.60;0.60;;;9.60;99.90;;;;;;5034598;28;20710;-70
2021/09/18 02:34:37;;;;;;;0.60;0.60;;;9.60;99.90;;;;;;5035309;28;20217;-69
2021/09/18 02:37:03;;;;;;;1.00;0.67;;;9.60;99.90;;;;;;5030659;28;20576;-67
2021/09/18 02:39:29;;;;;;;1.47;0.60;;;9.70;99.90;;;;;;5032993;28;20281;-69
2021/09/18 02:41:55;;;;;;;1.43;0.93;;;9.70;99.90;;;;;;5037487;28;20534;-69
2021/09/18 02:44:20;;;;;;;0.77;0.70;;;9.90;99.90;;;;;;5037682;28;20210;-67
2021/09/18 02:46:46;;;;;;;1.47;0.70;;;10.00;99.90;;;;;;5039723;28;20174;-67
2021/09/18 02:49:11;;;;;;;1.30;0.83;;;10.00;99.90;;;;;;5035618;28;20229;-69
2021/09/18 02:51:37;;;;;;;0.60;0.50;;;10.10;99.90;;;;;;5036494;28;20268;-66
2021/09/18 02:54:03;;;;;;;1.43;0.70;;;10.20;99.90;;;;;;5044696;28;20265;-70
2021/09/18 02:56:29;;;;;;;1.03;0.63;;;10.20;99.90;;;;;;5036721;28;20273;-70
2021/09/18 02:58:55;;;;;;;1.53;0.90;;;10.30;99.90;;;;;;5036382;28;20183;-70
2021/09/18 03:01:21;;;;;;;2.10;0.80;;;10.30;99.90;;;;;;5038806;28;21072;-70
2021/09/18 03:03:46;;;;;;;0.70;0.70;;;10.40;99.90;;;;;;5031020;28;20547;-70
2021/09/18 03:06:13;;;;;;;0.98;0.88;;;10.50;99.90;;;;;;5034152;28;20178;-68
2021/09/18 03:08:38;;;;;;;1.00;0.90;;;10.50;99.90;;;;;;5036546;28;20182;-67
2021/09/18 03:11:04;;;;;;;0.88;0.88;;;10.60;99.90;;;;;;5033900;28;20195;-69
2021/09/18 03:13:30;;;;;;;1.00;0.90;;;10.70;99.90;;;;;;5033208;28;20632;-67
2021/09/18 03:15:56;;;;;;;1.23;1.13;;;10.70;99.90;;;;;;5023808;28;20183;-67
2021/09/18 03:18:22;;;;;;;1.50;1.27;;;10.90;99.90;;;;;;5036143;28;20182;-71
2021/09/18 03:20:48;;;;;;;2.72;1.40;;;11.00;99.90;;;;;;5035845;28;20202;-68
2021/09/18 03:23:13;;;;;;;1.85;1.30;;;11.20;99.90;;;;;;5037341;28;20179;-68
2021/09/18 03:25:42;;;;;;;1.50;1.40;;;11.20;99.90;;;;;;5031767;28;20265;-69
2021/09/18 03:28:08;;;;;;;1.33;1.20;;;11.30;99.90;;;;;;5035078;28;20203;-67
2021/09/18 03:30:34;;;;;;;1.60;1.50;;;11.30;99.90;;;;;;5040239;28;20252;-69
2021/09/18 03:33:00;;;;;;;1.92;1.60;;;11.40;99.90;;;;;;5034748;28;20528;-69
2021/09/18 03:35:25;;;;;;;2.35;1.70;;;11.50;99.90;;;;;;5040534;28;20261;-68
2021/09/18 03:37:51;;;;;;;1.80;1.70;;;11.50;99.90;;;;;;5037220;28;20577;-69
2021/09/18 03:40:17;;;;;;;2.72;1.80;;;11.50;99.90;;;;;;5034476;28;20199;-69
2021/09/18 03:42:42;;;;;;;2.78;1.83;;;11.40;99.90;;;;;;5035401;28;20264;-68
2021/09/18 03:45:09;;;;;;;2.10;1.70;;;11.40;99.90;;;;;;5035200;28;20220;-69
2021/09/18 03:47:35;;;;;;;2.38;1.70;;;11.40;99.90;;;;;;5036254;28;20265;-69
2021/09/18 03:50:00;;;;;;;2.67;2.13;;;11.50;99.90;;;;;;5041841;28;20356;-70
2021/09/18 03:52:26;;;;;;;2.27;1.50;;;11.50;99.90;;;;;;5040277;28;20185;-68
2021/09/18 03:54:55;;;;;;;3.30;1.60;;;11.50;99.90;;;;;;5035172;28;20174;-70
2021/09/18 03:57:22;;;;;;;2.00;1.50;;;11.50;99.90;;;;;;5033459;28;20214;-70
2021/09/18 03:59:47;;;;;;;5.50;1.90;;;11.50;99.90;;;;;;5042202;28;20194;-67
2021/09/18 04:02:13;;;;;;;2.25;2.05;;;11.50;99.90;;;;;;5037210;28;20208;-67
2021/09/18 04:04:39;;;;;;;2.38;1.80;;;11.50;99.90;;;;;;5033473;28;20707;-68
2021/09/18 04:07:04;;;;;;;2.80;2.00;;;11.50;99.90;;;;;;5035312;28;20179;-69
2021/09/18 04:09:30;;;;;;;2.15;1.85;;;11.50;99.90;;;;;;5024194;28;20170;-67
2021/09/18 04:11:56;;;;;;;1.85;1.75;;;11.50;99.90;;;;;;5036119;28;20240;-67
2021/09/18 04:14:21;;;;;;;3.00;1.80;;;11.50;99.90;;;;;;5033734;28;20182;-70
2021/09/18 04:16:48;;;;;;;2.80;1.60;;;11.50;99.90;;;;;;5033087;28;20394;-67
2021/09/18 04:19:13;;;;;;;2.85;1.60;;;11.60;99.90;;;;;;5033250;28;20190;-70
2021/09/18 04:21:39;;;;;;;2.58;1.90;;;11.50;99.90;;;;;;5028250;28;20203;-67
2021/09/18 04:24:05;;;;;;;2.75;1.75;;;11.60;99.90;;;;;;5022415;28;20572;-67
2021/09/18 04:26:32;;;;;;;3.13;2.03;;;11.60;99.90;;;;;;5035830;28;20536;-69
2021/09/18 04:28:58;;;;;;;2.33;1.90;;;11.60;99.90;;;;;;5033476;28;20500;-69
2021/09/18 04:31:23;;;;;;;2.22;2.03;;;11.60;99.90;;;;;;5037124;28;20198;-66
2021/09/18 04:33:49;;;;;;;1.90;1.77;;;11.60;99.90;;;;;;5031189;28;20652;-68
2021/09/18 04:36:15;;;;;;;3.08;2.10;;;11.60;99.90;;;;;;5024704;28;20618;-68
2021/09/18 04:38:41;;;;;;;3.08;2.20;;;11.60;99.90;;;;;;5032533;28;20183;-67
2021/09/18 04:41:06;;;;;;;2.15;1.95;;;11.70;99.90;;;;;;5028553;28;20238;-68
2021/09/18 04:43:32;;;;;;;1.92;1.83;;;11.70;99.90;;;;;;5033633;28;20202;-69
2021/09/18 04:45:58;;;;;;;2.38;1.95;;;11.70;99.90;;;;;;5034338;28;20214;-69
2021/09/18 04:48:23;;;;;;;2.50;1.90;;;11.70;99.90;;;;;;5036636;28;20228;-68
2021/09/18 04:50:49;;;;;;;1.90;1.80;;;11.70;99.90;;;;;;5034731;28;20198;-67
2021/09/18 04:53:15;;;;;;;2.78;1.88;;;11.70;99.90;;;;;;5038716;28;20450;-70
2021/09/18 04:55:41;;;;;;;4.45;4.03;;;11.80;99.90;;;;;;5029535;28;20185;-69
2021/09/18 04:58:07;;;;;;;2.85;2.03;;;11.80;99.90;;;;;;5024604;28;20256;-71
2021/09/18 05:00:32;;;;;;;2.95;2.08;;;11.80;99.90;;;;;;5033761;28;20208;-69
2021/09/18 05:02:58;;;;;;;2.38;1.70;;;11.80;99.90;;;;;;5031703;28;20191;-67
2021/09/18 05:05:23;;;;;;;2.58;2.00;;;11.80;99.90;;;;;;5034642;28;20211;-69
2021/09/18 05:07:49;;;;;;;2.65;1.50;;;11.90;99.90;;;;;;5030644;28;20187;-70
2021/09/18 05:10:14;;;;;;;1.40;1.30;;;11.90;99.90;;;;;;5031671;28;20622;-68
2021/09/18 05:12:41;;;;;;;3.00;1.80;;;12.00;99.90;;;;;;5030198;28;20212;-68
2021/09/18 05:15:07;;;;;;;1.63;1.50;;;11.90;99.90;;;;;;5032314;28;20187;-69
2021/09/18 05:17:33;;;;;;;2.78;1.90;;;11.90;99.90;;;;;;5035071;28;20536;-69
2021/09/18 05:19:59;;;;;;;1.77;1.55;;;12.00;99.90;;;;;;5027951;28;20185;-70
2021/09/18 05:22:25;;;;;;;3.70;2.22;;;12.00;99.90;;;;;;5034058;28;20285;-68
2021/09/18 05:24:51;;;;;;;1.77;1.60;;;12.00;99.90;;;;;;5036059;28;20226;-68
2021/09/18 05:27:17;;;;;;;2.13;1.42;;;12.10;99.90;;;;;;5033532;28;20689;-70
2021/09/18 05:29:44;;;;;;;2.20;1.60;;;12.20;99.90;;;;;;5030043;28;20195;-68
2021/09/18 05:32:10;;;;;;;1.85;1.40;;;12.20;99.90;;;;;;5032989;28;20198;-69
2021/09/18 05:34:36;;;;;;;3.92;2.40;;;12.40;99.90;;;;;;5034459;28;20245;-69
2021/09/18 05:37:02;;;;;;;1.55;1.45;;;12.30;99.90;;;;;;5034577;28;20186;-67
2021/09/18 05:39:28;;;;;;;2.83;1.73;;;12.30;99.90;;;;;;5029806;28;20279;-70
2021/09/18 05:41:53;;;;;;;1.60;1.42;;;12.30;99.90;;;;;;5037578;28;20610;-70
2021/09/18 05:44:19;;;;;;;1.60;1.50;;;12.40;99.90;;;;;;5031067;28;20305;-68
2021/09/18 05:46:45;;;;;;;1.65;1.50;;;12.40;99.90;;;;;;5021884;28;20533;-70
2021/09/18 05:49:10;;;;;;;1.92;1.45;;;12.40;99.90;;;;;;5023333;28;20210;-69
2021/09/18 05:51:36;;;;;;;3.80;1.70;;;12.50;99.90;;;;;;5030272;28;20217;-67
2021/09/18 05:54:02;;;;;;;1.73;1.50;;;12.50;99.90;;;;;;5029003;28;20187;-69
2021/09/18 05:56:27;;;;;;;2.15;1.50;;;12.60;99.90;;;;;;5032185;28;20206;-69
2021/09/18 05:58:53;;;;;;;2.88;1.63;;;12.70;99.90;;;;;;5031289;28;20251;-69
2021/09/18 06:01:19;;;;;;;2.63;1.90;;;12.70;99.90;;;;;;5034421;28;20210;-66
2021/09/18 06:03:44;;;;;;;2.05;1.60;;;12.70;99.90;;;;;;5029162;28;20194;-70
2021/09/18 06:06:10;;;;;;;1.73;1.35;;;12.70;99.90;;;;;;5033929;28;20217;-68
2021/09/18 06:08:36;;;;;;;1.80;1.70;;;12.70;99.90;;;;;;5041902;28;20220;-69
2021/09/18 06:11:01;;;;;;;1.60;1.50;;;12.70;99.90;;;;;;5024242;28;20202;-68
2021/09/18 06:13:27;;;;;;;2.30;1.80;;;12.80;99.90;;;;;;5035678;28;20182;-67
2021/09/18 06:15:53;;;;;;;1.70;1.60;;;12.80;99.90;;;;;;5039513;28;20610;-69
2021/09/18 06:18:19;;;;;;;3.47;1.60;;;12.90;99.90;;;;;;5033139;28;20237;-68
2021/09/18 06:20:44;;;;;;;2.40;1.60;;;13.00;99.90;;;;;;5035061;28;20199;-68
2021/09/18 06:23:10;;;;;;;1.63;1.52;;;13.00;99.90;;;;;;5035245;28;20186;-68
2021/09/18 06:25:35;;;;;;;3.10;1.70;;;13.00;99.90;;;;;;5036218;28;20538;-67
2021/09/18 06:28:01;;;;;;;2.45;1.80;;;13.00;99.90;;;;;;5035816;28;20186;-71
2021/09/18 06:30:26;;;;;;;2.30;1.92;;;13.00;99.90;;;;;;5033650;28;20561;-68
2021/09/18 06:32:52;;;;;;;2.92;2.10;;;12.90;99.90;;;;;;5026881;28;20488;-67
2021/09/18 06:35:18;;;;;;;2.20;1.85;;;12.80;99.90;;;;;;5033314;28;20231;-70
2021/09/18 06:37:45;;;;;;;1.65;1.55;;;12.80;99.90;;;;;;5035040;28;20186;-70
2021/09/18 06:40:13;;;;;;;1.88;1.63;;;12.80;99.90;;;;;;5039246;28;20256;-70
2021/09/18 06:42:39;;;;;;;2.10;1.90;;;12.80;99.90;;;;;;5036586;28;20247;-68
2021/09/18 06:45:06;;;;;;;3.03;2.00;;;12.80;99.90;;;;;;5038304;28;20592;-68
2021/09/18 06:47:32;;;;;;;1.98;1.80;;;12.80;99.90;;;;;;5033519;28;20179;-70
2021/09/18 06:49:58;;;;;;;3.13;2.28;;;12.80;99.90;;;;;;5035123;28;20179;-69
2021/09/18 06:52:23;;;;;;;3.65;2.17;;;12.90;99.90;;;;;;5032930;28;20183;-67
2021/09/18 06:54:49;;;;;;;1.92;1.83;;;13.00;99.90;;;;;;5024103;28;20209;-68
2021/09/18 06:57:14;;;;;;;2.30;2.10;;;13.00;99.90;;;;;;5037964;28;20606;-69
2021/09/18 06:59:40;;;;;;;2.50;1.88;;;13.00;99.90;;;;;;5033374;28;20186;-69
2021/09/18 07:02:08;;;;;;;2.20;2.00;;;13.10;99.90;;;;;;5033441;28;20403;-68
2021/09/18 07:04:34;;;;;;;3.95;2.28;;;13.10;99.90;;;;;;5038214;28;20209;-68
2021/09/18 07:06:59;;;;;;;2.67;2.10;;;13.00;99.90;;;;;;5033728;28;20200;-66
2021/09/18 07:09:25;;;;;;;4.22;2.13;;;13.10;99.90;;;;;;5025210;28;20187;-68
2021/09/18 07:11:51;;;;;;;1.98;1.88;;;13.10;99.90;;;;;;5032235;28;20266;-69
2021/09/18 07:14:16;;;;;;;2.50;2.20;;;13.10;99.90;;;;;;5032818;28;20744;-68
2021/09/18 07:16:42;;;;;;;2.75;2.22;;;13.20;99.90;;;;;;5032628;28;20190;-68
2021/09/18 07:19:07;;;;;;;2.58;2.38;;;13.20;99.90;;;;;;5038059;28;21329;-69
2021/09/18 07:21:33;;;;;;;2.97;2.60;;;13.10;99.90;;;;;;5034604;28;20205;-69
2021/09/18 07:23:59;;;;;;;3.55;2.33;;;13.20;99.90;;;;;;5035280;28;20216;-69
2021/09/18 07:26:24;;;;;;;3.33;2.58;;;13.20;99.90;;;;;;5034918;28;20228;-70
2021/09/18 07:28:50;;;;;;;3.05;2.53;;;13.20;99.90;;;;;;5022792;28;20187;-67
2021/09/18 07:31:15;;;;;;;3.25;2.47;;;13.20;99.90;;;;;;5036920;28;21127;-69
2021/09/18 07:33:41;;;;;;;4.10;2.50;;;13.30;99.90;;;;;;5032955;28;20178;-68
2021/09/18 07:36:07;;;;;;;2.80;2.40;;;13.20;99.90;;;;;;5034815;28;20263;-67
2021/09/18 07:38:32;;;;;;;3.63;3.08;;;13.30;99.90;;;;;;5034820;28;20181;-69
2021/09/18 07:40:58;;;;;;;3.22;2.78;;;13.40;99.90;;;;;;5035311;28;20899;-68
2021/09/18 07:43:24;;;;;;;3.25;2.60;;;13.30;99.90;;;;;;5025888;28;20218;-68
2021/09/18 07:45:50;;;;;;;3.63;3.08;;;13.40;99.90;;;;;;5031301;28;20256;-67
2021/09/18 07:48:16;;;;;;;3.03;2.72;;;13.50;99.90;;;;;;5032942;28;20665;-68
2021/09/18 07:50:41;;;;;;;2.90;2.55;;;13.60;99.90;;;;;;5033389;28;20202;-67
2021/09/18 07:53:07;;;;;;;3.35;2.60;;;13.60;99.90;;;;;;5034464;28;20197;-70
2021/09/18 07:55:34;;;;;;;3.00;2.70;;;13.80;99.90;;;;;;5037833;28;20182;-69
2021/09/18 07:58:01;;;;;;;3.38;2.83;;;13.90;99.90;;;;;;5033291;28;20237;-68
2021/09/18 08:00:26;;;;;;;4.50;3.20;;;14.00;99.90;;;;;;5023840;28;20195;-67
2021/09/18 08:02:52;;;;;;;3.75;3.30;;;14.00;99.90;;;;;;5032256;28;20182;-69
2021/09/18 08:05:19;;;;;;;4.70;3.42;;;14.10;99.90;;;;;;5034139;28;20293;-70
2021/09/18 08:07:45;;;;;;;4.47;3.95;;;14.20;99.90;;;;;;5033602;28;20178;-68
2021/09/18 08:10:13;;;;;;;4.07;3.65;;;14.30;99.90;;;;;;5039777;28;20540;-69
2021/09/18 08:12:39;;;;;;;5.20;4.03;;;14.30;99.90;;;;;;5031573;28;20258;-69
2021/09/18 08:15:06;;;;;;;4.38;3.85;;;14.40;99.90;;;;;;5032998;28;20280;-66
2021/09/18 08:17:31;;;;;;;4.50;3.97;;;14.50;99.90;;;;;;5031832;28;20278;-70
2021/09/18 08:19:57;;;;;;;5.60;4.28;;;14.50;99.90;;;;;;5029308;28;20981;-69
2021/09/18 08:22:23;;;;;;;5.20;4.32;;;14.50;99.90;;;;;;5028249;28;20256;-67
2021/09/18 08:24:48;;;;;;;5.35;4.10;;;14.60;99.90;;;;;;5035467;28;20211;-69
2021/09/18 08:27:14;;;;;;;4.10;3.60;;;14.60;99.90;;;;;;5033694;28;20186;-67
2021/09/18 08:29:39;;;;;;;5.25;4.65;;;14.70;99.90;;;;;;5021274;28;20185;-69
2021/09/18 08:32:05;;;;;;;4.95;4.20;;;14.70;99.90;;;;;;5023513;28;20244;-69
2021/09/18 08:34:31;;;;;;;4.60;4.20;;;14.80;99.90;;;;;;5022213;28;20186;-67
2021/09/18 08:36:56;;;;;;;4.82;3.92;;;14.80;99.90;;;;;;5033806;28;20726;-69
2021/09/18 08:39:22;;;;;;;5.82;4.50;;;14.90;99.90;;;;;;5027662;28;20186;-69
2021/09/18 08:41:48;;;;;;;5.60;4.13;;;14.90;99.90;;;;;;5025740;28;21015;-68
2021/09/18 08:44:17;;;;;;;4.65;3.90;;;15.00;99.90;;;;;;5028723;28;20969;-69
2021/09/18 08:46:43;;;;;;;4.55;3.80;;;15.00;99.90;;;;;;5031506;28;20186;-70
2021/09/18 08:49:10;;;;;;;4.82;3.80;;;15.10;99.90;;;;;;5032804;28;20190;-70
2021/09/18 08:51:36;;;;;;;5.82;3.72;;;15.10;99.90;;;;;;5031971;28;20469;-70
2021/09/18 08:54:04;;;;;;;5.30;4.25;;;15.00;99.90;;;;;;5037292;28;20167;-68
2021/09/18 08:56:31;;;;;;;4.75;4.28;;;15.00;99.90;;;;;;5031487;28;20321;-67
2021/09/18 08:58:57;;;;;;;4.45;4.05;;;15.10;99.90;;;;;;5034727;28;20961;-68
2021/09/18 09:01:23;;;;;;;4.55;3.78;;;15.20;99.90;;;;;;5033744;28;20276;-69
2021/09/18 09:04:07;;;;;;;4.65;4.22;;;15.10;99.90;;;;;;5024186;28;20186;-68
2021/09/18 09:06:39;;;;;;;5.00;4.35;;;15.20;99.90;;;;;;5030258;28;20178;-67
2021/09/18 09:09:05;;;;;;;4.47;3.90;;;15.20;99.90;;;;;;5028884;28;20261;-67
2021/09/18 09:11:31;;;;;;;5.43;3.72;;;15.30;99.90;;;;;;5036834;28;20281;-70
2021/09/18 09:14:00;;;;;;;5.72;4.45;;;15.30;99.90;;;;;;5030736;28;20179;-69
2021/09/18 09:16:28;;;;;;;5.60;4.25;;;15.30;99.90;;;;;;5030866;28;20656;-67
2021/09/18 09:18:53;;;;;;;7.15;4.20;;;15.40;99.90;;;;;;5035477;28;20202;-68
2021/09/18 09:21:22;;;;;;;4.93;4.43;;;15.60;99.90;;;;;;5031550;28;20664;-67
2021/09/18 09:24:11;;;;;;;4.45;4.05;;;15.70;99.90;;;;;;5033622;28;20270;-68
2021/09/18 09:26:40;;;;;;;5.28;3.97;;;15.80;99.90;;;;;;5031023;28;20178;-70
2021/09/18 09:29:06;;;;;;;4.35;3.95;;;15.80;99.90;;;;;;5034323;28;20178;-68
2021/09/18 09:31:35;;;;;;;3.95;3.55;;;15.80;99.90;;;;;;5032392;28;20305;-69
2021/09/18 09:34:18;;;;;;;5.10;3.72;;;15.90;99.90;;;;;;5034510;28;20178;-70
2021/09/18 09:36:52;;;;;;;5.28;4.55;;;15.90;99.90;;;;;;5033536;28;20819;-69
2021/09/18 09:39:21;;;;;;;5.75;4.15;;;15.90;99.90;;;;;;5027831;28;20187;-68
2021/09/18 09:41:50;;;;;;;4.95;4.18;;;15.90;99.90;;;;;;5027442;28;20202;-70
2021/09/18 09:44:19;;;;;;;4.88;4.38;;;15.80;99.90;;;;;;5033165;28;20363;-70
2021/09/18 09:47:05;;;;;;;4.50;3.90;;;15.90;99.90;;;;;;5034711;28;20171;-68
2021/09/18 09:49:46;;;;;;;5.53;4.60;;;16.10;99.90;;;;;;5027951;28;20747;-68
2021/09/18 09:52:26;;;;;;;4.93;4.53;;;16.20;99.90;;;;;;5037342;28;20202;-68
2021/09/18 09:54:55;;;;;;;4.85;4.22;;;16.50;99.90;;;;;;5039397;28;20192;-69
2021/09/18 09:57:21;;;;;;;4.65;4.25;;;16.50;99.90;;;;;;5039097;28;20290;-70
2021/09/18 09:59:48;;;;;;;6.53;4.10;;;16.50;99.90;;;;;;5038183;28;20703;-67
2021/09/18 10:02:14;;;;;;;5.85;4.43;;;16.50;99.90;;;;;;5035914;28;20709;-69
2021/09/18 10:04:40;;;;;;;5.45;4.28;;;16.60;99.90;;;;;;5037840;28;20202;-69
2021/09/18 10:07:08;;;;;;;5.25;4.30;;;16.60;99.90;;;;;;5030201;28;20182;-70
2021/09/18 10:09:36;;;;;;;4.45;4.05;;;16.80;99.90;;;;;;5034164;28;20186;-66
2021/09/18 10:12:03;;;;;;;5.05;3.78;;;16.90;99.90;;;;;;5034321;28;20194;-69
2021/09/18 10:14:31;;;;;;;4.82;4.10;;;16.90;99.90;;;;;;5032715;28;20520;-69
2021/09/18 10:16:58;;;;;;;3.90;3.50;;;16.90;99.90;;;;;;5037952;28;20177;-69
2021/09/18 10:19:53;;;;;;;3.70;3.13;;;16.80;99.90;;;;;;5029473;28;20661;-69
2021/09/18 10:25:19;;;;;;;3.58;3.20;;;17.20;99.90;;;;;;5034595;28;20621;-68
2021/09/18 10:28:10;;;;;;;4.03;3.63;;;17.20;99.90;;;;;;5037472;28;20193;-68
2021/09/18 10:30:41;;;;;;;4.22;3.70;;;16.90;99.90;;;;;;5033541;28;20237;-68
2021/09/18 10:33:25;;;;;;;4.65;4.20;;;16.70;99.90;;;;;;5034649;28;20307;-68
2021/09/18 10:35:53;;;;;;;4.82;4.00;;;16.50;99.90;;;;;;5026926;28;21302;-70
2021/09/18 10:38:22;;;;;;;4.20;3.80;;;16.40;99.90;;;;;;5036193;28;20334;-68
2021/09/18 10:41:09;;;;;;;4.70;3.72;;;16.40;99.90;;;;;;5036399;28;20202;-69
2021/09/18 10:43:38;;;;;;;3.65;3.35;;;16.30;99.90;;;;;;5032666;28;20256;-69
2021/09/18 10:46:06;;;;;;;4.45;4.00;;;16.10;99.90;;;;;;5035147;28;20175;-69
2021/09/18 10:48:35;;;;;;;4.25;3.85;;;16.00;99.90;;;;;;5033741;28;20650;-69
2021/09/18 10:51:00;;;;;;;4.30;3.90;;;16.00;99.90;;;;;;5036531;28;20204;-67
2021/09/18 10:53:26;;;;;;;3.80;3.47;;;16.00;99.90;;;;;;5029556;28;20174;-69
2021/09/18 10:56:02;;;;;;;4.22;3.10;;;15.90;99.90;;;;;;5023640;28;20274;-69
2021/09/18 10:58:27;;;;;;;4.90;3.65;;;15.90;99.90;;;;;;5042965;28;20579;-69
2021/09/18 11:00:58;;;;;;;4.88;3.78;;;16.00;99.90;;;;;;5031693;28;20201;-70
2021/09/18 11:03:47;;;;;;;3.40;3.03;;;16.10;99.90;;;;;;5026242;28;20499;-70
2021/09/18 11:06:49;;;;;;;3.78;3.08;;;16.20;99.90;;;;;;5030012;28;20214;-67
2021/09/18 11:09:14;;;;;;;3.90;3.25;;;16.50;99.90;;;;;;5002017;28;20191;-68
2021/09/18 11:11:40;;;;;;;3.55;3.20;;;16.70;99.90;;;;;;5026793;28;20204;-70
2021/09/18 11:14:09;;;;;;;3.47;3.00;;;16.80;99.90;;;;;;5038574;28;20178;-69
2021/09/18 11:16:36;;;;;;;4.05;3.65;;;17.00;99.90;;;;;;5036767;28;20561;-69
2021/09/18 11:19:08;;;;;;;3.17;2.88;;;17.10;99.90;;;;;;5034729;28;20182;-69
2021/09/18 11:21:40;;;;;;;3.53;3.00;;;17.30;99.90;;;;;;5031539;28;20209;-68
2021/09/18 11:24:15;;;;;;;3.47;2.92;;;17.50;99.90;;;;;;5034185;28;20229;-67
2021/09/18 11:26:57;;;;;;;3.22;2.50;;;17.80;99.90;;;;;;5036336;28;20250;-69
2021/09/18 11:29:37;;;;;;;3.47;2.40;;;17.90;99.90;;;;;;5029075;28;20190;-69
2021/09/18 11:32:12;;;;;;;3.08;2.70;;;17.90;99.90;;;;;;5038286;28;20263;-70
2021/09/18 11:34:40;;;;;;;3.42;2.83;;;17.80;99.90;;;;;;5030492;28;20261;-70
2021/09/18 11:37:09;;;;;;;3.67;2.95;;;17.80;99.90;;;;;;5033307;28;20194;-69
2021/09/18 11:39:37;;;;;;;3.58;2.90;;;17.80;99.90;;;;;;5034337;28;20233;-67
2021/09/18 11:42:19;;;;;;;4.00;2.63;;;17.90;99.90;;;;;;5031864;28;20194;-70
2021/09/18 11:44:50;;;;;;;2.63;2.42;;;18.00;99.90;;;;;;5038996;28;20253;-68
2021/09/18 11:47:24;;;;;;;4.90;3.72;;;18.00;99.90;;;;;;5033937;28;20265;-67
2021/09/18 11:49:50;;;;;;;2.70;2.50;;;18.10;99.90;;;;;;5026189;28;20577;-69
2021/09/18 11:52:16;;;;;;;3.00;2.47;;;18.30;99.90;;;;;;5032566;28;20202;-67
2021/09/18 11:54:41;;;;;;;2.72;2.53;;;18.20;99.90;;;;;;5032332;28;20460;-69
2021/09/18 11:57:17;;;;;;;2.80;2.50;;;18.20;99.90;;;;;;5034433;28;20269;-70
2021/09/18 11:59:45;;;;;;;2.70;2.47;;;18.20;99.90;;;;;;5022191;28;20703;-68
2021/09/18 12:02:11;;;;;;;4.30;2.55;;;18.40;99.90;;;;;;5038136;28;20206;-69
2021/09/18 12:04:48;;;;;;;2.60;2.40;;;18.50;99.90;;;;;;5028972;28;20798;-70
2021/09/18 12:07:14;;;;;;;4.43;2.92;;;18.50;99.90;;;;;;5035061;28;20440;-70
2021/09/18 12:09:40;;;;;;;2.63;2.42;;;18.60;99.90;;;;;;5032566;28;20182;-69
2021/09/18 12:12:06;;;;;;;4.05;2.30;;;18.60;99.90;;;;;;5031615;28;20773;-70
2021/09/18 12:14:37;;;;;;;3.25;2.25;;;18.70;99.90;;;;;;5024950;28;20192;-70
2021/09/18 12:17:18;;;;;;;2.53;2.30;;;18.70;99.90;;;;;;5036545;28;20178;-68
2021/09/18 12:19:45;;;;;;;2.10;1.83;;;18.90;99.90;;;;;;5031721;28;20233;-69
2021/09/18 12:22:12;;;;;;;3.58;2.05;;;18.90;99.90;;;;;;5032358;28;20508;-67
2021/09/18 12:24:39;;;;;;;2.00;1.80;;;18.80;99.90;;;;;;5031715;28;20598;-68
2021/09/18 12:27:24;;;;;;;2.92;2.00;;;19.00;99.90;;;;;;5035309;28;20165;-69
2021/09/18 12:29:59;;;;;;;2.80;2.30;;;19.10;99.90;;;;;;5031976;28;20257;-70
2021/09/18 12:32:25;;;;;;;2.40;1.80;;;19.10;99.90;;;;;;5034816;28;20175;-68
2021/09/18 12:34:54;;;;;;;2.40;2.00;;;18.90;99.90;;;;;;5024442;28;20629;-69
2021/09/18 12:37:29;;;;;;;2.22;2.00;;;18.70;99.90;;;;;;5038453;28;20191;-70
2021/09/18 12:39:55;;;;;;;1.92;1.70;;;18.90;99.90;;;;;;5024788;28;20210;-69
2021/09/18 12:42:21;;;;;;;2.58;1.50;;;18.90;99.90;;;;;;5033501;28;21220;-70
2021/09/18 12:44:48;;;;;;;1.98;1.85;;;19.00;99.90;;;;;;5035438;28;20210;-70
2021/09/18 12:47:24;;;;;;;3.45;2.05;;;18.80;99.90;;;;;;5039826;28;20185;-71
2021/09/18 12:49:50;;;;;;;1.85;1.60;;;18.70;99.90;;;;;;5036488;28;20174;-71
2021/09/18 12:52:15;;;;;;;2.80;1.90;;;18.60;99.90;;;;;;5032158;28;20206;-68